Ostrica, Louisiana
Current Conditions -  °F | °C
As of 2:08 PM on Friday 19 Dec 2014 (Local Time) from KBVE Reporting Station
Light Rain Light Rain  
Wind Chill: 60°   Ceiling: 1600
Heat Index: 60°   Visibility: 2mi
Dew Point: 60°   Wind: 0mph
Humidity: 100%   Direction: NA
Pressure: 30.03"   Gusts: NA
Location:  29.2996°N, 89.4367°W
Report Text: KBVE 192008Z AUTO 00000KT 2SM -RA BR SCT004 BKN016 OVC024 16/16 A3003 RMK AO2 P0001 T01560156
Loading
Personal Weather Stations






























Interactive Weather Map New forecast layout! Learn more

10-Day Weather Forecast

Advertisements
Track Severe Weather on mobile